Current Weather

Republic

Farmingdale, New York (KFRG)

Report from: Saturday, June 22, 2024 2:53 AM EDT
Current time: Saturday, June 22, 2024 3:46 AM EDT

Nearby weather – Weather history – Daily summaries
Weather forecast

Temperature22.8°C (73.0°F)
Dew point20.0°C (68.0°F)
Winds 5 kts (2.6 m/s, 5.8 mph) South (180°)
Visibility10 mi. (16.1 km)
Clouds Sky clear
Altimeter30.07 in.Hg (1018 mB)
Relative humidity84 %
Density altitude1,064 ft. (324 m)
Sea-level pressure101.8 kPa (1018 mB, 30.06 in.Hg)
Remarks Fully automated report
Automated weather observing station with precipitation discriminator
Flight conditions Visual Meteorological Conditions
Raw dataKFRG 220653Z AUTO 18005KT 10SM CLR 23/20 A3007 RMK AO2 SLP180 T02280200
An error has occurred. This application may no longer respond until reloaded. Reload 🗙